Time;durP1;ratioP1;P1;durP2;ratioP2;P2;SDS_P1;SDS_P2;PMS_P1;PMS_P2;Temp;Humidity;BMP_temperature;BMP_pressure;BME280_temperature;BME280_humidity;BME280_pressure;Samples;Min_cycle;Max_cycle;Signal;HPM_P1;HPM_P2
2022/10/23 00:01:55;;;;;;;9.43;4.40;;;11.80;99.90;;;;;;6278164;22;20012;-83
2022/10/23 00:04:24;;;;;;;10.70;4.97;;;11.80;99.90;;;;;;6250795;22;20015;-83
2022/10/23 00:06:49;;;;;;;8.60;4.50;;;11.80;99.90;;;;;;6250220;22;20016;-84
2022/10/23 00:09:19;;;;;;;9.43;4.80;;;11.80;99.90;;;;;;6277971;22;20386;-83
2022/10/23 00:11:46;;;;;;;8.20;4.40;;;11.80;99.90;;;;;;6250207;22;20019;-83
2022/10/23 00:14:13;;;;;;;10.52;4.93;;;11.80;99.90;;;;;;6250157;22;20012;-83
2022/10/23 00:16:39;;;;;;;8.05;4.32;;;11.80;99.90;;;;;;6250326;22;20053;-84
2022/10/23 00:19:05;;;;;;;10.55;4.63;;;11.70;99.90;;;;;;6250759;22;20103;-83
2022/10/23 00:21:30;;;;;;;8.65;4.28;;;11.70;99.90;;;;;;6276848;22;20023;-83
2022/10/23 00:23:56;;;;;;;8.43;4.60;;;11.70;99.90;;;;;;6250763;22;20012;-83
2022/10/23 00:26:21;;;;;;;9.60;4.97;;;11.80;99.90;;;;;;6250633;22;20015;-84
2022/10/23 00:28:50;;;;;;;9.10;4.55;;;11.70;99.90;;;;;;6275637;22;20102;-83
2022/10/23 00:31:16;;;;;;;8.57;4.40;;;11.70;99.90;;;;;;6277358;22;20090;-83
2022/10/23 00:33:42;;;;;;;7.03;4.50;;;11.70;99.90;;;;;;6277991;22;20028;-83
2022/10/23 00:36:10;;;;;;;7.80;4.50;;;11.70;99.90;;;;;;6248961;22;20024;-83
2022/10/23 00:38:36;;;;;;;15.23;6.88;;;11.70;99.90;;;;;;6250316;22;20019;-83
2022/10/23 00:41:02;;;;;;;7.93;5.00;;;11.60;99.90;;;;;;6276633;22;20023;-84
2022/10/23 00:43:29;;;;;;;8.60;5.10;;;11.70;99.90;;;;;;6276636;22;20061;-84
2022/10/23 00:45:56;;;;;;;9.18;4.93;;;11.60;99.90;;;;;;6250526;22;20019;-83
2022/10/23 00:48:22;;;;;;;7.43;4.78;;;11.70;99.90;;;;;;6277443;22;20047;-83
2022/10/23 00:50:48;;;;;;;7.40;4.78;;;11.70;99.90;;;;;;6249922;22;20095;-83
2022/10/23 00:53:15;;;;;;;8.25;4.65;;;11.60;99.90;;;;;;6249935;22;20012;-83
2022/10/23 00:55:45;;;;;;;7.55;4.70;;;11.60;99.90;;;;;;6276334;22;20542;-83
2022/10/23 00:58:15;;;;;;;6.90;4.63;;;11.60;99.90;;;;;;6277299;22;20016;-84
2022/10/23 01:00:50;;;;;;;8.75;4.90;;;11.60;99.90;;;;;;6250067;22;20015;-84
2022/10/23 01:03:18;;;;;;;10.68;5.00;;;11.60;99.90;;;;;;6248928;22;20019;-83
2022/10/23 01:06:06;;;;;;;8.82;4.90;;;11.60;99.90;;;;;;6248950;22;20099;-83
2022/10/23 01:08:54;;;;;;;8.88;4.88;;;11.60;99.90;;;;;;6277558;22;20379;-83
2022/10/23 01:11:27;;;;;;;7.53;4.82;;;11.50;99.90;;;;;;6248198;22;20016;-83
2022/10/23 01:13:53;;;;;;;;;;;11.50;99.90;;;;;;6277787;22;20014;-84
2022/10/23 01:16:46;;;;;;;8.45;5.25;;;11.50;99.90;;;;;;6249414;22;19958;-84
2022/10/23 01:19:32;;;;;;;10.30;5.83;;;11.50;99.90;;;;;;6275658;22;20451;-83
2022/10/23 01:22:26;;;;;;;7.93;5.22;;;11.40;99.90;;;;;;6277328;22;20016;-84
2022/10/23 01:24:59;;;;;;;8.18;5.35;;;11.40;99.90;;;;;;6249151;22;20016;-83
2022/10/23 01:27:41;;;;;;;8.30;5.80;;;11.50;99.90;;;;;;6277043;22;20020;-84
2022/10/23 01:30:14;;;;;;;8.40;5.30;;;11.50;99.90;;;;;;6276202;22;20074;-84
2022/10/23 01:32:46;;;;;;;8.43;5.50;;;11.40;99.90;;;;;;6249025;22;20011;-84
2022/10/23 01:35:20;;;;;;;7.90;5.72;;;11.40;99.90;;;;;;6277038;22;20114;-84
2022/10/23 01:37:55;;;;;;;9.98;5.50;;;11.40;99.90;;;;;;6250364;22;20129;-84
2022/10/23 01:40:28;;;;;;;7.50;5.38;;;11.40;99.90;;;;;;6276369;22;20016;-84
2022/10/23 01:42:57;;;;;;;8.40;5.28;;;11.40;99.90;;;;;;6249738;22;20034;-84
2022/10/23 01:45:31;;;;;;;9.43;5.53;;;11.40;99.90;;;;;;6277118;22;20015;-84
2022/10/23 01:48:01;;;;;;;8.13;5.75;;;11.40;99.90;;;;;;6277689;22;20470;-84
2022/10/23 01:50:28;;;;;;;8.48;5.55;;;11.40;99.90;;;;;;6278956;22;20364;-84
2022/10/23 01:52:54;;;;;;;8.30;5.10;;;11.40;99.90;;;;;;6251611;22;20416;-83
2022/10/23 01:55:22;;;;;;;8.27;5.50;;;11.40;99.90;;;;;;6251308;22;20077;-84
2022/10/23 01:57:50;;;;;;;7.43;4.95;;;11.40;99.90;;;;;;6253731;22;20103;-84
2022/10/23 02:00:18;;;;;;;8.32;5.65;;;11.40;99.90;;;;;;6251106;22;20015;-84
2022/10/23 02:02:47;;;;;;;7.68;5.47;;;11.40;99.90;;;;;;6251398;22;20091;-83
2022/10/23 02:05:27;;;;;;;9.57;5.53;;;11.40;99.90;;;;;;6278723;22;20094;-84
2022/10/23 02:07:53;;;;;;;7.93;5.13;;;11.40;99.90;;;;;;6250365;22;20470;-83
2022/10/23 02:10:20;;;;;;;6.75;5.25;;;11.30;99.90;;;;;;6279106;22;20027;-83
2022/10/23 02:13:02;;;;;;;10.02;5.57;;;11.30;99.90;;;;;;6252234;22;20064;-83
2022/10/23 02:15:39;;;;;;;8.18;5.32;;;11.30;99.90;;;;;;6251271;22;20026;-84
2022/10/23 02:18:26;;;;;;;9.95;5.80;;;11.30;99.90;;;;;;6251907;22;20011;-83
2022/10/23 02:20:56;;;;;;;8.75;5.88;;;11.30;99.90;;;;;;6278322;22;20016;-84
2022/10/23 02:23:31;;;;;;;8.85;5.85;;;11.30;99.90;;;;;;6278780;22;20034;-84
2022/10/23 02:26:23;;;;;;;8.57;5.40;;;11.30;99.90;;;;;;6278894;22;20015;-83
2022/10/23 02:28:57;;;;;;;7.72;4.95;;;11.30;99.90;;;;;;6276518;22;20015;-84
2022/10/23 02:31:23;;;;;;;6.75;5.00;;;11.30;99.90;;;;;;6278545;22;20090;-84
2022/10/23 02:33:49;;;;;;;6.75;4.68;;;11.30;99.90;;;;;;6278572;22;20407;-84
2022/10/23 02:36:17;;;;;;;6.68;5.10;;;11.20;99.90;;;;;;6250409;22;20142;-84
2022/10/23 02:38:44;;;;;;;8.88;5.70;;;11.20;99.90;;;;;;6278735;22;20019;-83
2022/10/23 02:41:35;;;;;;;6.65;5.05;;;11.20;99.90;;;;;;6250969;22;20023;-84
2022/10/23 02:44:29;;;;;;;9.57;5.72;;;11.20;99.90;;;;;;6250480;22;20027;-83
2022/10/23 02:47:03;;;;;;;8.02;5.47;;;11.10;99.90;;;;;;6278426;22;20050;-84
2022/10/23 02:49:40;;;;;;;7.88;5.03;;;11.20;99.90;;;;;;6276652;22;20087;-84
2022/10/23 02:52:30;;;;;;;7.32;5.15;;;11.10;99.90;;;;;;6251052;22;20073;-84
2022/10/23 02:55:18;;;;;;;6.45;4.57;;;11.10;99.90;;;;;;6250761;22;20451;-84
2022/10/23 02:57:47;;;;;;;7.68;4.85;;;11.10;99.90;;;;;;6278971;22;20012;-84
2022/10/23 03:00:16;;;;;;;7.07;5.45;;;11.10;99.90;;;;;;6276122;22;20077;-84
2022/10/23 03:02:59;;;;;;;7.72;5.45;;;11.10;99.90;;;;;;6277634;22;20042;-83
2022/10/23 03:05:31;;;;;;;7.45;5.70;;;11.10;99.90;;;;;;6250814;22;20011;-84
2022/10/23 03:07:57;;;;;;;9.80;5.60;;;11.10;99.90;;;;;;6277004;22;20030;-84
2022/10/23 03:10:23;;;;;;;9.18;5.18;;;11.00;99.90;;;;;;6248121;22;20012;-82
2022/10/23 03:12:49;;;;;;;6.32;4.75;;;11.00;99.90;;;;;;6277267;22;20064;-83
2022/10/23 03:15:16;;;;;;;7.80;5.32;;;11.00;99.90;;;;;;6277708;22;20086;-83
2022/10/23 03:17:42;;;;;;;7.93;5.70;;;11.00;99.90;;;;;;6248732;22;20012;-84
2022/10/23 03:20:09;;;;;;;8.13;5.30;;;11.00;99.90;;;;;;6277010;22;20331;-86
2022/10/23 03:22:34;;;;;;;6.68;4.97;;;11.00;99.90;;;;;;6249184;22;20083;-84
2022/10/23 03:25:00;;;;;;;9.18;5.82;;;11.00;99.90;;;;;;6245534;22;20043;-83
2022/10/23 03:27:25;;;;;;;6.78;5.07;;;11.00;99.90;;;;;;6246473;22;20935;-83
2022/10/23 03:29:51;;;;;;;8.00;5.75;;;11.00;99.90;;;;;;6247123;22;20020;-83
2022/10/23 03:32:17;;;;;;;7.43;5.38;;;11.00;99.90;;;;;;6274549;22;20490;-83
2022/10/23 03:34:42;;;;;;;7.07;5.65;;;11.00;99.90;;;;;;6248529;22;20051;-83
2022/10/23 03:37:08;;;;;;;6.68;4.97;;;11.00;99.90;;;;;;6248389;22;20022;-83
2022/10/23 03:39:34;;;;;;;7.03;4.88;;;11.00;99.90;;;;;;6248272;22;20016;-84
2022/10/23 03:41:59;;;;;;;6.53;4.97;;;11.00;99.90;;;;;;6276154;22;20101;-83
2022/10/23 03:44:25;;;;;;;7.43;5.32;;;11.00;99.90;;;;;;6275465;22;20016;-82
2022/10/23 03:46:50;;;;;;;8.65;5.63;;;11.00;99.90;;;;;;6248741;22;20016;-83
2022/10/23 03:49:16;;;;;;;9.55;5.78;;;10.90;99.90;;;;;;6248802;22;20047;-83
2022/10/23 03:51:42;;;;;;;8.02;4.85;;;10.90;99.90;;;;;;6247863;22;20012;-83
2022/10/23 03:54:08;;;;;;;7.93;5.07;;;11.00;99.90;;;;;;6248707;22;20008;-84
2022/10/23 03:56:34;;;;;;;10.20;5.80;;;11.00;99.90;;;;;;6274817;22;20516;-83
2022/10/23 03:58:59;;;;;;;7.53;5.15;;;11.00;99.90;;;;;;6248086;22;20011;-84
2022/10/23 04:01:25;;;;;;;7.65;5.78;;;10.90;99.90;;;;;;6273923;22;20432;-84
2022/10/23 04:03:51;;;;;;;7.85;5.07;;;11.00;99.90;;;;;;6249491;22;20094;-84
2022/10/23 04:06:17;;;;;;;7.47;5.55;;;10.90;99.90;;;;;;6248060;22;20026;-84
2022/10/23 04:08:43;;;;;;;6.93;5.00;;;11.00;99.90;;;;;;6249131;22;20012;-84
2022/10/23 04:11:09;;;;;;;7.72;5.25;;;10.90;99.90;;;;;;6277301;22;20043;-84
2022/10/23 04:13:34;;;;;;;7.35;4.95;;;10.90;99.90;;;;;;6275935;22;20035;-84
2022/10/23 04:16:00;;;;;;;7.00;5.32;;;10.90;99.90;;;;;;6251257;22;20027;-84
2022/10/23 04:18:26;;;;;;;7.25;5.18;;;10.90;99.90;;;;;;6250440;22;20137;-83
2022/10/23 04:20:52;;;;;;;7.63;5.20;;;11.00;99.90;;;;;;6250488;22;20473;-84
2022/10/23 04:23:18;;;;;;;7.13;5.20;;;10.90;99.90;;;;;;6249239;22;20087;-84
2022/10/23 04:25:44;;;;;;;9.77;5.95;;;10.90;99.90;;;;;;6276717;22;20402;-84
2022/10/23 04:28:10;;;;;;;8.73;5.75;;;10.90;99.90;;;;;;6249073;22;20418;-84
2022/10/23 04:30:35;;;;;;;7.75;5.43;;;10.90;99.90;;;;;;6250010;22;20016;-84
2022/10/23 04:33:01;;;;;;;7.40;5.38;;;10.90;99.90;;;;;;6250577;22;20396;-84
2022/10/23 04:35:27;;;;;;;8.52;5.53;;;10.90;99.90;;;;;;6248781;22;20066;-84
2022/10/23 04:37:52;;;;;;;7.88;5.65;;;10.90;99.90;;;;;;6250605;22;20016;-84
2022/10/23 04:40:18;;;;;;;8.27;5.15;;;10.90;99.90;;;;;;6277109;22;20020;-84
2022/10/23 04:42:43;;;;;;;8.80;5.90;;;10.90;99.90;;;;;;6274328;22;20019;-84
2022/10/23 04:45:09;;;;;;;8.13;5.47;;;10.90;99.90;;;;;;6276961;22;20125;-84
2022/10/23 04:47:35;;;;;;;8.45;5.50;;;10.90;99.90;;;;;;6250581;22;20015;-83
2022/10/23 04:50:00;;;;;;;7.82;5.55;;;10.90;99.90;;;;;;6275867;22;20023;-84
2022/10/23 04:52:26;;;;;;;8.65;5.78;;;10.90;99.90;;;;;;6249778;22;20359;-84
2022/10/23 04:54:52;;;;;;;7.13;5.45;;;10.80;99.90;;;;;;6275722;22;20094;-84
2022/10/23 04:57:17;;;;;;;8.85;5.63;;;10.80;99.90;;;;;;6276590;22;20016;-84
2022/10/23 04:59:43;;;;;;;8.00;5.40;;;10.80;99.90;;;;;;6249027;22;20015;-84
2022/10/23 05:02:08;;;;;;;8.52;5.70;;;10.80;99.90;;;;;;6275908;22;20011;-84
2022/10/23 05:04:34;;;;;;;10.18;6.18;;;10.80;99.90;;;;;;6249282;22;20039;-84
2022/10/23 05:07:00;;;;;;;7.82;5.78;;;10.70;99.90;;;;;;6277240;22;20047;-84
2022/10/23 05:09:26;;;;;;;10.90;6.75;;;10.80;99.90;;;;;;6275371;22;20400;-84
2022/10/23 05:11:51;;;;;;;9.20;5.80;;;10.70;99.90;;;;;;6277099;22;20016;-83
2022/10/23 05:14:17;;;;;;;9.30;6.20;;;10.70;99.90;;;;;;6276921;22;20509;-83
2022/10/23 05:16:50;;;;;;;7.90;6.10;;;10.70;99.90;;;;;;6275823;22;20079;-84
2022/10/23 05:19:32;;;;;;;7.97;5.93;;;10.80;99.90;;;;;;6276606;22;20019;-83
2022/10/23 05:21:58;;;;;;;9.02;6.53;;;10.70;99.90;;;;;;6277011;22;20046;-84
2022/10/23 05:24:25;;;;;;;9.13;5.88;;;10.70;99.90;;;;;;6275088;22;20366;-85
2022/10/23 05:26:51;;;;;;;10.38;5.68;;;10.70;99.90;;;;;;6248415;22;20019;-84
2022/10/23 05:29:21;;;;;;;10.30;6.55;;;10.70;99.90;;;;;;6248205;22;20020;-85
2022/10/23 05:31:50;;;;;;;9.68;5.85;;;10.70;99.90;;;;;;6274875;22;20023;-85
2022/10/23 05:34:20;;;;;;;9.82;5.47;;;10.70;99.90;;;;;;6275356;22;20321;-84
2022/10/23 05:36:46;;;;;;;8.43;5.85;;;10.70;99.90;;;;;;6276108;22;20015;-84
2022/10/23 05:39:12;;;;;;;8.88;5.30;;;10.70;99.90;;;;;;6274697;22;20015;-85
2022/10/23 05:41:38;;;;;;;8.68;5.60;;;10.70;99.90;;;;;;6248656;22;20149;-84
2022/10/23 05:44:03;;;;;;;8.93;6.25;;;10.70;99.90;;;;;;6274594;22;20343;-84
2022/10/23 05:46:29;;;;;;;10.57;5.57;;;10.70;99.90;;;;;;6248980;22;20015;-84
2022/10/23 05:48:54;;;;;;;7.93;5.35;;;10.70;99.90;;;;;;6248648;22;20023;-84
2022/10/23 05:51:21;;;;;;;9.13;5.78;;;10.70;99.90;;;;;;6247768;22;20019;-84
2022/10/23 05:53:51;;;;;;;8.48;6.15;;;10.70;99.90;;;;;;6276091;22;20347;-84
2022/10/23 05:56:17;;;;;;;9.10;6.20;;;10.70;99.90;;;;;;6275299;22;20016;-84
2022/10/23 05:58:47;;;;;;;9.02;6.40;;;10.60;99.90;;;;;;6249641;22;20016;-84
2022/10/23 06:01:13;;;;;;;8.57;6.32;;;10.60;99.90;;;;;;6249070;22;20019;-84
2022/10/23 06:03:40;;;;;;;8.68;6.57;;;10.70;99.90;;;;;;6276374;22;20012;-84
2022/10/23 06:14:54;;;;;;;9.77;6.47;;;10.60;99.90;;;;;;6292959;22;20080;-86
2022/10/23 06:17:29;;;;;;;9.75;5.88;;;10.60;99.90;;;;;;6279168;22;20335;-85
2022/10/23 06:20:01;;;;;;;8.25;5.85;;;10.70;99.90;;;;;;6305498;22;20053;-85
2022/10/23 06:22:27;;;;;;;8.90;6.15;;;10.60;99.90;;;;;;6306222;22;20055;-85
2022/10/23 06:24:53;;;;;;;11.07;6.15;;;10.60;99.90;;;;;;6279699;22;20377;-85
2022/10/23 06:27:19;;;;;;;10.63;6.60;;;10.60;99.90;;;;;;6278666;22;20047;-85
2022/10/23 06:29:45;;;;;;;11.20;5.80;;;10.60;99.90;;;;;;6279840;22;20106;-85
2022/10/23 06:32:10;;;;;;;10.77;5.95;;;10.60;99.90;;;;;;6278811;22;20034;-85
2022/10/23 06:34:36;;;;;;;10.30;6.82;;;10.60;99.90;;;;;;6278833;22;20015;-85
2022/10/23 06:37:01;;;;;;;9.35;6.40;;;10.60;99.90;;;;;;6281460;22;20019;-85
2022/10/23 06:39:27;;;;;;;10.15;6.00;;;10.60;99.90;;;;;;6281146;22;20016;-85
2022/10/23 06:41:53;;;;;;;13.15;8.77;;;10.60;99.90;;;;;;6307782;22;20019;-84
2022/10/23 06:44:19;;;;;;;9.65;6.47;;;10.60;99.90;;;;;;6309017;22;20011;-84
2022/10/23 06:46:46;;;;;;;9.07;6.22;;;10.60;99.90;;;;;;6281462;22;20012;-86
2022/10/23 06:49:15;;;;;;;10.77;6.50;;;10.60;99.90;;;;;;6280843;22;20011;-85
2022/10/23 06:51:42;;;;;;;9.60;6.28;;;10.60;99.90;;;;;;6308568;22;20015;-85
2022/10/23 06:54:10;;;;;;;8.80;6.70;;;10.60;99.90;;;;;;6280809;22;20426;-85
2022/10/23 06:56:36;;;;;;;10.68;6.90;;;10.60;99.90;;;;;;6280560;22;20015;-85
2022/10/23 06:59:01;;;;;;;12.98;8.82;;;10.60;99.90;;;;;;6309178;22;20381;-85
2022/10/23 07:01:27;;;;;;;11.38;7.93;;;10.60;99.90;;;;;;6307538;22;20053;-85
2022/10/23 07:03:53;;;;;;;13.35;7.90;;;10.70;99.90;;;;;;6281595;22;20015;-84
2022/10/23 07:06:18;;;;;;;14.88;10.43;;;10.70;99.90;;;;;;6281247;22;20019;-85
2022/10/23 07:08:44;;;;;;;11.85;7.55;;;10.70;99.90;;;;;;6280602;22;20019;-85
2022/10/23 07:11:11;;;;;;;11.73;8.18;;;10.70;99.90;;;;;;6308660;22;20015;-84
2022/10/23 07:13:37;;;;;;;12.38;7.38;;;10.70;99.90;;;;;;6281093;22;20030;-84
2022/10/23 07:16:20;;;;;;;12.10;8.23;;;10.70;99.90;;;;;;6308633;22;20341;-84
2022/10/23 07:18:47;;;;;;;14.43;8.75;;;10.70;99.90;;;;;;6282864;22;20319;-82
2022/10/23 07:21:13;;;;;;;12.90;8.23;;;10.70;99.90;;;;;;6281511;22;20011;-82
2022/10/23 07:23:39;;;;;;;12.77;7.95;;;10.80;99.90;;;;;;6280817;22;20484;-82
2022/10/23 07:26:14;;;;;;;11.82;7.38;;;10.80;99.90;;;;;;6281863;22;20351;-82
2022/10/23 07:28:40;;;;;;;11.27;6.95;;;10.80;99.90;;;;;;6283191;22;20015;-81
2022/10/23 07:31:07;;;;;;;11.88;7.97;;;10.80;99.90;;;;;;6281856;22;20468;-82
2022/10/23 07:33:32;;;;;;;10.82;7.75;;;10.80;99.90;;;;;;6281772;22;20078;-82
2022/10/23 07:35:59;;;;;;;10.52;7.22;;;10.80;99.90;;;;;;6309025;22;20123;-82
2022/10/23 07:38:26;;;;;;;10.18;7.30;;;10.90;99.90;;;;;;6308587;22;20014;-82
2022/10/23 07:40:52;;;;;;;11.60;6.97;;;10.90;99.90;;;;;;6309171;22;20011;-82
2022/10/23 07:43:19;;;;;;;13.55;7.38;;;10.90;99.90;;;;;;6281903;22;20015;-82
2022/10/23 07:45:48;;;;;;;11.70;7.07;;;10.90;99.90;;;;;;6309673;22;20072;-82
2022/10/23 07:48:15;;;;;;;10.43;7.10;;;10.90;99.90;;;;;;6309447;22;20008;-81
2022/10/23 07:50:41;;;;;;;11.73;8.27;;;10.90;99.90;;;;;;6281532;22;20015;-83
2022/10/23 07:53:09;;;;;;;11.23;8.27;;;10.90;99.90;;;;;;6308892;22;20094;-82
2022/10/23 07:55:35;;;;;;;13.27;8.90;;;11.00;99.90;;;;;;6281181;22;20018;-82
2022/10/23 07:58:00;;;;;;;11.18;7.50;;;11.00;99.90;;;;;;6281535;22;20023;-82
2022/10/23 08:00:26;;;;;;;9.43;7.13;;;11.00;99.90;;;;;;6308189;22;20026;-83
2022/10/23 08:02:52;;;;;;;10.85;7.43;;;11.10;99.90;;;;;;6308823;22;20019;-83
2022/10/23 08:05:20;;;;;;;10.85;7.43;;;11.10;99.90;;;;;;6307406;22;20019;-83
2022/10/23 08:07:46;;;;;;;11.10;7.55;;;11.10;99.90;;;;;;6281542;22;20023;-83
2022/10/23 08:10:12;;;;;;;13.07;8.27;;;11.10;99.90;;;;;;6280986;22;20014;-86
2022/10/23 08:12:37;;;;;;;11.20;7.50;;;11.20;99.90;;;;;;6308248;22;20026;-88
2022/10/23 08:15:03;;;;;;;13.52;7.95;;;11.20;99.90;;;;;;6308040;22;20458;-87
2022/10/23 08:17:29;;;;;;;9.90;7.40;;;11.20;99.90;;;;;;6308536;22;20011;-87
2022/10/23 08:19:54;;;;;;;11.05;7.57;;;11.30;99.90;;;;;;6281508;22;20012;-87
2022/10/23 08:22:20;;;;;;;12.13;7.72;;;11.30;99.90;;;;;;6309590;22;20026;-87
2022/10/23 08:24:46;;;;;;;13.93;8.43;;;11.30;99.90;;;;;;6309665;22;20185;-85
2022/10/23 08:27:11;;;;;;;14.30;8.35;;;11.30;99.90;;;;;;6310072;22;20015;-84
2022/10/23 08:29:37;;;;;;;11.13;7.93;;;11.40;99.90;;;;;;6309772;22;20018;-84
2022/10/23 08:32:03;;;;;;;15.50;8.20;;;11.40;99.90;;;;;;6309161;22;20023;-83
2022/10/23 08:34:28;;;;;;;17.85;8.77;;;11.40;99.90;;;;;;6279669;22;20019;-83
2022/10/23 08:36:54;;;;;;;12.88;7.50;;;11.50;99.90;;;;;;6310314;22;20015;-84
2022/10/23 08:43:24;;;;;;;14.27;7.90;;;11.60;99.90;;;;;;6133742;23;20461;-94
2022/10/23 08:46:01;;;;;;;11.38;7.13;;;11.60;99.90;;;;;;6130236;23;20080;-95
2022/10/23 08:48:50;;;;;;;12.10;6.65;;;11.70;99.90;;;;;;6157477;23;20032;-96
2022/10/23 08:51:48;;;;;;;12.90;7.57;;;11.70;99.90;;;;;;6157012;23;20021;-92
2022/10/23 08:54:46;;;;;;;16.60;8.45;;;11.80;99.90;;;;;;6131536;23;20094;-95
2022/10/23 09:00:59;;;;;;;;;;;;;;;;;;;;;
2022/10/23 09:04:03;;;;;;;13.25;7.05;;;12.00;99.90;;;;;;5990540;23;20023;-96
2022/10/23 09:07:25;;;;;;;;;;;;;;;;;;;;;
2022/10/23 09:17:46;;;;;;;11.43;6.65;;;12.40;99.90;;;;;;6046525;23;20113;-96
2022/10/23 09:20:52;;;;;;;;;;;;;;;;;;;;;
2022/10/23 09:24:22;;;;;;;19.40;9.05;;;12.50;99.90;;;;;;6151732;23;20057;-96
2022/10/23 09:37:47;;;;;;;12.50;6.60;;;12.80;99.90;;;;;;5996420;23;20067;-96
2022/10/23 09:52:44;;;;;;;11.05;5.18;;;12.90;99.90;;;;;;5894643;24;20059;-96
2022/10/23 09:55:57;;;;;;;12.98;5.78;;;13.00;99.90;;;;;;5851738;24;20026;-96
2022/10/23 11:08:00;;;;;;;10.38;3.20;;;14.50;99.90;;;;;;6249181;23;20020;-84
2022/10/23 11:10:29;;;;;;;9.07;3.30;;;14.50;99.90;;;;;;6217575;23;20055;-86
2022/10/23 11:13:01;;;;;;;8.20;3.05;;;14.60;99.90;;;;;;6247126;23;20132;-86
2022/10/23 11:15:37;;;;;;;9.23;3.08;;;14.60;99.90;;;;;;6247535;23;20031;-86
2022/10/23 11:18:10;;;;;;;7.40;2.80;;;14.70;99.90;;;;;;6221837;23;20089;-86
2022/10/23 11:21:06;;;;;;;10.48;3.38;;;14.70;99.90;;;;;;6248293;23;20040;-86
2022/10/23 11:23:56;;;;;;;10.98;3.15;;;14.70;99.90;;;;;;6220444;23;20396;-86
2022/10/23 11:26:41;;;;;;;6.78;2.80;;;14.80;99.90;;;;;;6248900;23;20016;-85
2022/10/23 11:29:50;;;;;;;11.52;3.60;;;14.80;99.90;;;;;;6247132;23;20513;-85
2022/10/23 11:32:31;;;;;;;9.40;3.47;;;14.80;99.90;;;;;;6101547;23;20014;-86
2022/10/23 11:35:15;;;;;;;7.10;3.22;;;14.80;99.90;;;;;;6234319;23;20012;-85
2022/10/23 11:37:41;;;;;;;8.90;3.15;;;14.80;99.90;;;;;;6245976;23;20114;-85
2022/10/23 11:40:06;;;;;;;6.90;3.00;;;14.80;99.90;;;;;;6246594;23;20016;-84
2022/10/23 11:42:38;;;;;;;5.57;2.75;;;14.90;99.90;;;;;;6219749;23;20390;-83
2022/10/23 11:45:35;;;;;;;9.77;3.30;;;14.80;99.90;;;;;;6220270;23;20062;-85
2022/10/23 11:48:22;;;;;;;8.32;2.90;;;14.80;99.90;;;;;;6246715;23;20012;-85
2022/10/23 11:50:49;;;;;;;8.15;3.47;;;14.80;99.90;;;;;;6219474;23;20054;-85
2022/10/23 11:53:38;;;;;;;10.55;3.63;;;14.80;99.90;;;;;;6246101;23;20444;-84
2022/10/23 11:56:13;;;;;;;9.18;3.17;;;14.90;99.90;;;;;;6248428;23;20023;-86
2022/10/23 11:58:45;;;;;;;6.40;3.10;;;14.90;99.90;;;;;;6218496;23;20016;-85
2022/10/23 12:01:35;;;;;;;9.95;2.83;;;14.90;99.90;;;;;;6246556;23;20027;-83
2022/10/23 12:04:04;;;;;;;10.23;3.25;;;14.90;99.90;;;;;;6246973;23;20020;-83
2022/10/23 12:06:42;;;;;;;7.47;3.25;;;14.90;99.90;;;;;;6213974;23;20025;-83
2022/10/23 12:09:32;;;;;;;12.30;3.67;;;15.00;99.90;;;;;;6216133;23;20028;-84
2022/10/23 12:12:06;;;;;;;6.95;2.60;;;15.00;99.90;;;;;;6216516;23;20317;-84
2022/10/23 12:14:44;;;;;;;10.07;3.08;;;15.00;99.90;;;;;;6216075;23;20071;-82
2022/10/23 12:17:22;;;;;;;9.32;3.08;;;15.00;99.90;;;;;;6214591;23;20012;-83
2022/10/23 12:19:52;;;;;;;8.13;2.67;;;15.00;99.90;;;;;;6214207;23;20017;-82
2022/10/23 12:22:21;;;;;;;12.45;3.10;;;15.00;99.90;;;;;;6214092;23;20040;-83
2022/10/23 12:25:14;;;;;;;9.60;3.05;;;15.10;99.90;;;;;;6214060;23;20074;-84
2022/10/23 12:27:47;;;;;;;11.65;4.03;;;15.10;99.90;;;;;;6215165;23;20062;-90
2022/10/23 12:30:17;;;;;;;;;;;15.10;99.90;;;;;;6215559;23;20099;-81
2022/10/23 12:32:55;;;;;;;10.82;2.95;;;15.10;99.90;;;;;;6214208;23;20328;-82
2022/10/23 12:35:55;;;;;;;8.98;2.97;;;15.10;99.90;;;;;;6216319;23;20051;-83
2022/10/23 12:38:24;;;;;;;9.23;2.85;;;15.10;99.90;;;;;;6213957;23;20333;-82
2022/10/23 12:40:54;;;;;;;10.60;3.20;;;15.20;99.90;;;;;;6212896;23;20432;-82
2022/10/23 12:43:33;;;;;;;8.73;3.00;;;15.20;99.90;;;;;;6214048;23;20035;-92
2022/10/23 12:46:21;;;;;;;7.07;3.00;;;15.20;99.90;;;;;;6217057;23;20017;-93
2022/10/23 12:48:48;;;;;;;10.00;3.00;;;15.20;99.90;;;;;;6217605;23;20016;-92
2022/10/23 12:51:21;;;;;;;8.95;2.50;;;15.20;99.90;;;;;;6217531;23;20017;-90
2022/10/23 12:53:50;;;;;;;8.85;2.88;;;15.20;99.90;;;;;;6213652;23;20013;-92
2022/10/23 12:56:17;;;;;;;9.10;2.67;;;15.30;99.90;;;;;;6215943;23;20009;-89
2022/10/23 12:58:55;;;;;;;11.05;3.15;;;15.30;99.90;;;;;;6214855;23;20321;-90
2022/10/23 13:01:26;;;;;;;6.35;2.60;;;15.30;99.90;;;;;;6213835;23;20024;-89
2022/10/23 13:04:15;;;;;;;9.98;2.95;;;15.30;99.90;;;;;;6217199;23;20016;-82
2022/10/23 13:06:41;;;;;;;10.35;3.20;;;15.30;99.90;;;;;;6237039;23;20379;-80
2022/10/23 13:09:18;;;;;;;6.03;2.75;;;15.30;99.90;;;;;;6245491;23;20020;-82
2022/10/23 13:11:44;;;;;;;13.10;2.72;;;15.40;99.90;;;;;;6218726;23;20082;-81
2022/10/23 13:14:11;;;;;;;10.07;2.63;;;15.30;99.90;;;;;;6243231;23;20150;-82
2022/10/23 13:16:37;;;;;;;8.00;2.72;;;15.40;99.90;;;;;;6246209;23;20064;-82
2022/10/23 13:19:03;;;;;;;8.88;2.90;;;15.40;99.90;;;;;;6219637;23;20016;-82
2022/10/23 13:21:29;;;;;;;9.45;2.67;;;15.40;99.90;;;;;;6218805;23;20827;-82
2022/10/23 13:23:55;;;;;;;9.43;3.03;;;15.40;99.90;;;;;;6218804;23;20112;-82
2022/10/23 13:26:36;;;;;;;10.35;2.97;;;15.40;99.90;;;;;;6218924;23;20020;-82
2022/10/23 13:29:14;;;;;;;12.40;3.05;;;15.40;99.90;;;;;;6218917;23;20435;-82
2022/10/23 13:31:40;;;;;;;9.52;2.67;;;15.40;99.90;;;;;;6246255;23;20024;-82
2022/10/23 13:34:22;;;;;;;5.53;2.67;;;15.50;99.90;;;;;;6219340;23;20112;-81
2022/10/23 13:37:00;;;;;;;10.02;2.90;;;15.40;99.90;;;;;;6218345;23;20016;-82
2022/10/23 13:39:29;;;;;;;9.30;3.05;;;15.50;99.90;;;;;;6219230;23;20406;-81
2022/10/23 13:41:58;;;;;;;8.32;2.42;;;15.50;99.90;;;;;;6219662;23;20016;-82
2022/10/23 13:44:25;;;;;;;7.93;2.83;;;15.50;99.90;;;;;;6218301;23;20063;-82
2022/10/23 13:46:51;;;;;;;8.30;2.53;;;15.50;99.90;;;;;;6221158;23;20024;-82
2022/10/23 13:49:18;;;;;;;10.25;2.83;;;15.60;99.90;;;;;;6247630;23;20023;-82
2022/10/23 13:51:52;;;;;;;7.22;2.55;;;15.60;99.90;;;;;;6220974;23;20016;-82
2022/10/23 13:54:26;;;;;;;6.70;2.80;;;15.60;99.90;;;;;;6220643;23;20017;-82
2022/10/23 13:56:53;;;;;;;10.60;2.30;;;15.60;99.90;;;;;;6219904;23;20012;-82
2022/10/23 13:59:19;;;;;;;10.80;2.22;;;15.70;99.90;;;;;;6247663;23;20008;-82
2022/10/23 14:01:47;;;;;;;8.60;2.30;;;15.70;99.90;;;;;;6220747;23;20065;-82
2022/10/23 14:04:14;;;;;;;8.88;2.47;;;15.70;99.90;;;;;;6246639;23;20012;-82
2022/10/23 14:06:41;;;;;;;5.93;2.33;;;15.70;99.90;;;;;;6220788;23;20027;-83
2022/10/23 14:09:10;;;;;;;9.45;2.50;;;15.70;99.90;;;;;;6247718;23;20070;-82
2022/10/23 14:11:36;;;;;;;13.20;2.92;;;15.70;99.90;;;;;;6247398;23;20023;-83
2022/10/23 14:14:02;;;;;;;10.48;2.65;;;15.70;99.90;;;;;;6220075;23;20035;-81
2022/10/23 14:16:28;;;;;;;7.65;2.40;;;15.80;99.90;;;;;;6248015;23;20020;-82
2022/10/23 14:18:54;;;;;;;7.18;2.70;;;15.80;99.90;;;;;;6247063;23;20012;-81
2022/10/23 14:21:21;;;;;;;8.85;2.28;;;15.80;99.90;;;;;;6220578;23;20078;-81
2022/10/23 14:23:47;;;;;;;9.55;2.20;;;15.80;99.90;;;;;;6247996;23;20031;-82
2022/10/23 14:26:15;;;;;;;6.20;2.28;;;15.80;99.90;;;;;;6219431;23;20051;-82
2022/10/23 14:28:42;;;;;;;7.22;2.55;;;15.80;99.90;;;;;;6220813;23;20012;-81
2022/10/23 14:31:11;;;;;;;7.60;2.60;;;15.80;99.90;;;;;;6247898;23;20016;-82
2022/10/23 14:33:36;;;;;;;10.07;2.50;;;15.80;99.90;;;;;;6219537;23;20016;-83
2022/10/23 14:36:02;;;;;;;9.30;2.80;;;15.80;99.90;;;;;;6220673;23;20019;-82
2022/10/23 14:38:28;;;;;;;9.85;2.30;;;15.80;99.90;;;;;;6219754;23;20008;-82
2022/10/23 14:40:53;;;;;;;7.45;2.47;;;15.80;99.90;;;;;;6220375;23;20012;-83
2022/10/23 14:43:21;;;;;;;11.68;2.67;;;15.80;99.90;;;;;;6219444;23;20456;-82
2022/10/23 14:45:47;;;;;;;6.30;2.03;;;15.80;99.90;;;;;;6246604;23;20023;-82
2022/10/23 14:48:12;;;;;;;7.38;2.33;;;15.80;99.90;;;;;;6245284;23;20012;-81
2022/10/23 14:50:45;;;;;;;9.68;2.40;;;15.80;99.90;;;;;;6247776;23;20344;-81
2022/10/23 14:53:10;;;;;;;14.52;2.30;;;15.80;99.90;;;;;;6218592;23;20055;-82
2022/10/23 14:55:36;;;;;;;7.28;2.33;;;15.80;99.90;;;;;;6219425;23;20020;-82
2022/10/23 14:58:02;;;;;;;5.78;2.25;;;15.90;99.90;;;;;;6247460;23;20008;-84
2022/10/23 15:03:41;;;;;;;7.35;2.33;;;15.90;99.90;;;;;;6269407;22;20082;-96
2022/10/23 15:06:23;;;;;;;9.45;2.40;;;15.90;99.90;;;;;;6260888;22;20031;-96
2022/10/23 15:22:49;;;;;;;10.00;1.88;;;16.00;99.90;;;;;;6286844;22;20354;-95